Time;durP1;ratioP1;P1;durP2;ratioP2;P2;SDS_P1;SDS_P2;PMS_P1;PMS_P2;Temp;Humidity;BMP_temperature;BMP_pressure;BME280_temperature;BME280_humidity;BME280_pressure;Samples;Min_cycle;Max_cycle;Signal;HPM_P1;HPM_P2
2022/02/07 00:01:11;;;;;;;;;;;;;;;;;;5075130;28;19937;-89
2022/02/07 00:03:47;;;;;;;;;;;;;;;;;;5075018;28;20294;-90
2022/02/07 00:06:15;;;;;;;;;;;;;;;;;;5075204;28;19994;-90
2022/02/07 00:08:40;;;;;;;;;;;;;;;;;;5075001;28;20329;-90
2022/02/07 00:11:06;;;;;;;;;;;;;;;;;;5076925;28;20318;-90
2022/02/07 00:13:31;;;;;;;;;;;;;;;;;;5078849;28;20425;-90
2022/02/07 00:15:56;;;;;;;;;;;;;;;;;;5078616;28;19966;-90
2022/02/07 00:18:23;;;;;;;;;;;;;;;;;;5078072;28;19912;-90
2022/02/07 00:20:48;;;;;;;;;;;;;;;;;;5078691;28;19912;-90
2022/02/07 00:23:13;;;;;;;;;;;;;;;;;;5078241;28;19985;-89
2022/02/07 00:25:38;;;;;;;;;;;;;;;;;;5078246;28;20456;-90
2022/02/07 00:28:03;;;;;;;;;;;;;;;;;;5078197;28;19957;-90
2022/02/07 00:30:28;;;;;;;;;;;;;;;;;;5078151;28;19947;-90
2022/02/07 00:32:53;;;;;;;;;;;;;;;;;;5096303;28;20010;-89
2022/02/07 00:35:22;;;;;;;;;;;;;;;;;;5078125;28;19916;-89
2022/02/07 00:37:48;;;;;;;;;;;;;;;;;;5078278;28;19916;-90
2022/02/07 00:42:50;;;;;;;;;;;;;;;;;;5096267;28;19919;-89
2022/02/07 00:45:25;;;;;;;;;;;;;;;;;;5096096;28;19958;-89
2022/02/07 00:47:50;;;;;;;;;;;;;;;;;;5078199;28;19955;-89
2022/02/07 00:50:15;;;;;;;;;;;;;;;;;;5078292;28;19973;-89
2022/02/07 00:52:40;;;;;;;;;;;;;;;;;;5077732;28;19916;-90
2022/02/07 00:55:05;;;;;;;;;;;;;;;;;;5077677;28;19908;-90
2022/02/07 00:57:31;;;;;;;;;;;;;;;;;;5077858;28;20002;-89
2022/02/07 00:59:56;;;;;;;;;;;;;;;;;;5095826;28;19912;-89
2022/02/07 01:02:21;;;;;;;;;;;;;;;;;;5077893;28;20003;-90
2022/02/07 01:04:46;;;;;;;;;;;;;;;;;;5077808;28;20027;-90
2022/02/07 01:07:11;;;;;;;;;;;;;;;;;;5077486;28;20457;-89
2022/02/07 01:09:46;;;;;;;;;;;;;;;;;;5077235;28;19916;-89
2022/02/07 01:12:21;;;;;;;;;;;;;;;;;;5077601;28;19955;-89
2022/02/07 01:15:01;;;;;;;;;;;;;;;;;;5077645;28;20041;-89
2022/02/07 01:23:25;;;;;;;;;;;;;;;;;;5052694;28;20283;-90
2022/02/07 01:48:04;;;;;;;;;;;;;;;;;;5075928;28;22135;-89
2022/02/07 01:53:11;;;;;;;;;;;;;;;;;;5094412;28;19916;-89
2022/02/07 01:55:42;;;;;;;;;;;;;;;;;;5073441;28;20378;-89
2022/02/07 01:58:07;;;;;;;;;;;;;;;;;;5076503;28;19967;-89
2022/02/07 02:00:32;;;;;;;;;;;;;;;;;;5095196;28;20321;-90
2022/02/07 02:02:57;;;;;;;;;;;;;;;;;;5075905;28;20268;-89
2022/02/07 02:05:22;;;;;;;;;;;;;;;;;;5094533;28;19913;-90
2022/02/07 02:07:51;;;;;;;;;;;;;;;;;;5076358;28;19912;-89
2022/02/07 02:10:16;;;;;;;;;;;;;;;;;;5076304;28;20382;-89
2022/02/07 02:12:46;;;;;;;;;;;;;;;;;;5094713;28;19999;-90
2022/02/07 02:33:51;;;;;;;;;;;;;;;;;;5093652;28;19968;-89
2022/02/07 02:36:15;;;;;;;;;;;;;;;;;;5092756;28;19916;-89
2022/02/07 02:46:49;;;;;;;;;;;;;;;;;;5048991;28;19912;-89
2022/02/07 02:49:14;;;;;;;;;;;;;;;;;;5075649;28;19912;-89
2022/02/07 02:51:39;;;;;;;;;;;;;;;;;;5075822;28;20394;-89
2022/02/07 02:54:07;;;;;;;;;;;;;;;;;;5075819;28;19954;-89
2022/02/07 02:56:32;;;;;;;;;;;;;;;;;;5075345;28;19916;-89
2022/02/07 02:58:57;;;;;;;;;;;;;;;;;;5075905;28;19919;-89
2022/02/07 03:01:22;;;;;;;;;;;;;;;;;;5075156;28;19920;-89
2022/02/07 03:03:48;;;;;;;;;;;;;;;;;;5075723;28;20282;-89
2022/02/07 03:06:14;;;;;;;;;;;;;;;;;;5075635;28;19912;-89
2022/02/07 03:08:39;;;;;;;;;;;;;;;;;;5075209;28;19911;-89
2022/02/07 03:11:10;;;;;;;;;;;;;;;;;;5075461;28;20379;-89
2022/02/07 03:13:54;;;;;;;;;;;;;;;;;;5075216;28;20013;-89
2022/02/07 03:16:38;;;;;;;;;;;;;;;;;;5075036;28;19919;-89
2022/02/07 03:19:03;;;;;;;;;;;;;;;;;;5076152;28;19953;-89
2022/02/07 03:21:28;;;;;;;;;;;;;;;;;;5075715;28;19912;-89
2022/02/07 03:23:53;;;;;;;;;;;;;;;;;;5094053;28;19942;-89
2022/02/07 03:26:19;;;;;;;;;;;;;;;;;;5075285;28;19912;-89
2022/02/07 03:28:46;;;;;;;;;;;;;;;;;;5075580;28;19916;-89
2022/02/07 03:31:11;;;;;;;;;;;;;;;;;;5075330;28;20019;-89
2022/02/07 03:33:36;;;;;;;;;;;;;;;;;;5075011;28;20007;-89
2022/02/07 03:36:01;;;;;;;;;;;;;;;;;;5075168;28;19918;-89
2022/02/07 03:38:26;;;;;;;;;;;;;;;;;;5074951;28;19920;-89
2022/02/07 03:40:51;;;;;;;;;;;;;;;;;;5075321;28;20363;-88
2022/02/07 03:43:16;;;;;;;;;;;;;;;;;;5075034;28;20002;-89
2022/02/07 03:45:41;;;;;;;;;;;;;;;;;;5076436;28;20011;-89
2022/02/07 03:48:06;;;;;;;;;;;;;;;;;;5097565;28;19947;-89
2022/02/07 03:50:32;;;;;;;;;;;;;;;;;;5079088;28;20050;-89
2022/02/07 03:52:57;;;;;;;;;;;;;;;;;;5078951;28;20313;-89
2022/02/07 03:55:22;;;;;;;;;;;;;;;;;;5096849;28;20415;-90
2022/02/07 03:57:47;;;;;;;;;;;;;;;;;;5097206;28;20287;-90
2022/02/07 04:00:15;;;;;;;;;;;;;;;;;;5079030;28;19912;-90
2022/02/07 04:02:44;;;;;;;;;;;;;;;;;;5079231;28;19916;-89
2022/02/07 04:07:43;;;;;;;;;;;;;;;;;;5088561;28;19912;-89
2022/02/07 04:10:09;;;;;;;;;;;;;;;;;;5079087;28;19987;-89
2022/02/07 04:12:35;;;;;;;;;;;;;;;;;;5078605;28;20451;-89
2022/02/07 04:15:00;;;;;;;;;;;;;;;;;;5078735;28;19912;-89
2022/02/07 04:17:28;;;;;;;;;;;;;;;;;;5078406;28;19916;-89
2022/02/07 04:19:58;;;;;;;;;;;;;;;;;;5096913;28;19912;-89
2022/02/07 04:22:24;;;;;;;;;;;;;;;;;;5078753;28;19951;-90
2022/02/07 04:24:49;;;;;;;;;;;;;;;;;;5078359;28;19954;-89
2022/02/07 04:27:14;;;;;;;;;;;;;;;;;;5078369;28;20184;-89
2022/02/07 04:29:40;;;;;;;;;;;;;;;;;;5078372;28;20426;-89
2022/02/07 04:32:05;;;;;;;;;;;;;;;;;;5078301;28;19919;-90
2022/02/07 04:34:30;;;;;;;;;;;;;;;;;;5078635;28;20386;-90
2022/02/07 04:36:56;;;;;;;;;;;;;;;;;;5078161;28;19923;-90
2022/02/07 04:39:22;;;;;;;;;;;;;;;;;;5078178;28;19912;-90
2022/02/07 04:41:47;;;;;;;;;;;;;;;;;;5077912;28;19919;-90
2022/02/07 04:44:17;;;;;;;;;;;;;;;;;;5078328;28;19929;-90
2022/02/07 04:49:21;;;;;;;;;;;;;;;;;;5096630;28;20702;-89
2022/02/07 04:57:13;;;;;;;;;;;;;;;;;;5023768;28;19944;-89
2022/02/07 04:59:48;;;;;;;;;;;;;;;;;;5078065;28;20361;-89
2022/02/07 05:04:48;;;;;;;;;;;;;;;;;;5096206;28;19915;-90
2022/02/07 05:15:25;;;;;;;;;;;;;;;;;;5089214;28;20283;-89
2022/02/07 05:17:50;;;;;;;;;;;;;;;;;;5077690;28;19912;-90
2022/02/07 05:20:15;;;;;;;;;;;;;;;;;;5077666;28;20414;-89
2022/02/07 05:22:40;;;;;;;;;;;;;;;;;;5077467;28;19916;-90
2022/02/07 05:25:06;;;;;;;;;;;;;;;;;;5077367;28;19913;-90
2022/02/07 05:27:31;;;;;;;;;;;;;;;;;;5077579;28;19912;-90
2022/02/07 05:29:56;;;;;;;;;;;;;;;;;;5077237;28;20006;-90
2022/02/07 05:32:21;;;;;;;;;;;;;;;;;;5077426;28;19912;-89
2022/02/07 05:34:46;;;;;;;;;;;;;;;;;;5077233;28;19924;-89
2022/02/07 05:37:13;;;;;;;;;;;;;;;;;;5077035;28;20312;-90
2022/02/07 05:39:39;;;;;;;;;;;;;;;;;;5077542;28;19923;-90
2022/02/07 05:42:06;;;;;;;;;;;;;;;;;;5076797;28;19912;-89
2022/02/07 05:44:31;;;;;;;;;;;;;;;;;;5077065;28;19977;-89
2022/02/07 05:46:56;;;;;;;;;;;;;;;;;;5077017;28;20306;-90
2022/02/07 05:49:24;;;;;;;;;;;;;;;;;;5076763;28;19912;-90
2022/02/07 05:51:49;;;;;;;;;;;;;;;;;;5077146;28;19919;-90
2022/02/07 05:54:14;;;;;;;;;;;;;;;;;;5076946;28;19912;-90
2022/02/07 05:56:39;;;;;;;;;;;;;;;;;;5077034;28;19912;-90
2022/02/07 05:59:04;;;;;;;;;;;;;;;;;;5094585;28;19908;-90
2022/02/07 06:01:29;;;;;;;;;;;;;;;;;;5076432;28;19912;-90
2022/02/07 06:03:54;;;;;;;;;;;;;;;;;;5076663;28;20003;-89
2022/02/07 06:06:20;;;;;;;;;;;;;;;;;;5076642;28;19916;-90
2022/02/07 06:08:45;;;;;;;;;;;;;;;;;;5076186;28;19994;-90
2022/02/07 06:11:12;;;;;;;;;;;;;;;;;;5076492;28;20007;-90
2022/02/07 06:13:38;;;;;;;;;;;;;;;;;;5076352;28;19952;-90
2022/02/07 06:16:03;;;;;;;;;;;;;;;;;;5076267;28;19916;-89
2022/02/07 06:18:30;;;;;;;;;;;;;;;;;;5076340;28;19912;-90
2022/02/07 06:21:00;;;;;;;;;;;;;;;;;;5076486;28;19923;-90
2022/02/07 06:23:28;;;;;;;;;;;;;;;;;;5076233;28;19923;-89
2022/02/07 06:25:53;;;;;;;;;;;;;;;;;;5068891;28;19919;-90
2022/02/07 06:28:18;;;;;;;;;;;;;;;;;;5073288;28;19916;-89
2022/02/07 06:30:43;;;;;;;;;;;;;;;;;;5075920;28;19912;-90
2022/02/07 06:33:09;;;;;;;;;;;;;;;;;;5076281;28;20003;-90
2022/02/07 06:35:34;;;;;;;;;;;;;;;;;;5076177;28;20022;-89
2022/02/07 06:37:59;;;;;;;;;;;;;;;;;;5070690;28;19912;-89
2022/02/07 06:40:24;;;;;;;;;;;;;;;;;;5076235;28;20383;-90
2022/02/07 06:42:49;;;;;;;;;;;;;;;;;;5076092;28;19912;-89
2022/02/07 06:45:14;;;;;;;;;;;;;;;;;;5076541;28;19908;-90
2022/02/07 06:47:39;;;;;;;;;;;;;;;;;;5076157;28;19965;-89
2022/02/07 06:50:04;;;;;;;;;;;;;;;;;;5076096;28;20329;-90
2022/02/07 06:52:29;;;;;;;;;;;;;;;;;;5076017;28;19908;-90
2022/02/07 06:54:55;;;;;;;;;;;;;;;;;;5093843;28;19916;-89
2022/02/07 06:57:21;;;;;;;;;;;;;;;;;;5075994;28;19998;-90
2022/02/07 06:59:48;;;;;;;;;;;;;;;;;;5075910;28;20002;-90
2022/02/07 07:02:13;;;;;;;;;;;;;;;;;;5076272;28;19912;-89
2022/02/07 07:04:38;;;;;;;;;;;;;;;;;;5076122;28;19920;-90
2022/02/07 07:07:03;;;;;;;;;;;;;;;;;;5090857;28;19916;-89
2022/02/07 07:09:29;;;;;;;;;;;;;;;;;;5071930;28;20351;-90
2022/02/07 07:12:02;;;;;;;;;;;;;;;;;;5076233;28;20291;-90
2022/02/07 07:14:40;;;;;;;;;;;;;;;;;;5072948;28;19918;-90
2022/02/07 07:17:05;;;;;;;;;;;;;;;;;;5081429;28;19939;-88
2022/02/07 07:19:30;;;;;;;;;;;;;;;;;;5078082;28;20433;-88
2022/02/07 07:21:55;;;;;;;;;;;;;;;;;;5090482;28;19964;-88
2022/02/07 07:24:20;;;;;;;;;;;;;;;;;;5075402;28;19977;-88
2022/02/07 07:26:45;;;;;;;;;;;;;;;;;;5070768;28;20295;-88
2022/02/07 07:29:14;;;;;;;;;;;;;;;;;;5091922;28;19956;-88
2022/02/07 07:31:45;;;;;;;;;;;;;;;;;;5077291;28;20385;-88
2022/02/07 07:34:15;;;;;;;;;;;;;;;;;;5075247;28;19920;-88
2022/02/07 07:36:41;;;;;;;;;;;;;;;;;;5075644;28;20007;-88
2022/02/07 07:39:06;;;;;;;;;;;;;;;;;;5075332;28;19993;-88
2022/02/07 07:41:31;;;;;;;;;;;;;;;;;;5075430;28;20006;-88
2022/02/07 07:43:56;;;;;;;;;;;;;;;;;;5069855;28;19916;-88
2022/02/07 07:46:27;;;;;;;;;;;;;;;;;;5074901;28;19912;-88
2022/02/07 07:49:02;;;;;;;;;;;;;;;;;;5075309;28;19912;-88
2022/02/07 07:51:38;;;;;;;;;;;;;;;;;;5073934;28;19923;-88
2022/02/07 07:54:28;;;;;;;;;;;;;;;;;;5093312;28;20267;-88
2022/02/07 08:02:25;;;;;;;;;;;;;;;;;;5093429;28;19957;-88
2022/02/07 08:04:50;;;;;;;;;;;;;;;;;;5074898;28;19923;-89
2022/02/07 08:07:20;;;;;;;;;;;;;;;;;;5074638;28;19912;-88
2022/02/07 08:12:29;;;;;;;;;;;;;;;;;;5092947;28;19919;-88
2022/02/07 08:14:55;;;;;;;;;;;;;;;;;;5074426;28;19916;-88
2022/02/07 08:17:22;;;;;;;;;;;;;;;;;;5074497;28;20352;-88
2022/02/07 08:19:47;;;;;;;;;;;;;;;;;;5075058;28;19925;-88
2022/02/07 08:22:12;;;;;;;;;;;;;;;;;;5093175;28;19912;-88
2022/02/07 08:24:37;;;;;;;;;;;;;;;;;;5074462;28;19920;-88
2022/02/07 08:27:04;;;;;;;;;;;;;;;;;;5074460;28;19923;-88
2022/02/07 08:29:29;;;;;;;;;;;;;;;;;;5074614;28;19947;-88
2022/02/07 08:31:54;;;;;;;;;;;;;;;;;;5075936;28;19912;-88
2022/02/07 08:34:19;;;;;;;;;;;;;;;;;;5078112;28;19916;-88
2022/02/07 08:36:44;;;;;;;;;;;;;;;;;;5078084;28;19958;-88
2022/02/07 08:39:09;;;;;;;;;;;;;;;;;;5078046;28;19912;-88
2022/02/07 08:41:35;;;;;;;;;;;;;;;;;;5077838;28;20021;-88
2022/02/07 08:44:00;;;;;;;;;;;;;;;;;;5078206;28;19920;-88
2022/02/07 08:46:25;;;;;;;;;;;;;;;;;;5077630;28;19916;-87
2022/02/07 08:48:50;;;;;;;;;;;;;;;;;;5078038;28;20271;-88
2022/02/07 08:51:15;;;;;;;;;;;;;;;;;;5095767;28;19912;-88
2022/02/07 08:53:43;;;;;;;;;;;;;;;;;;5078026;28;19923;-87
2022/02/07 08:56:08;;;;;;;;;;;;;;;;;;5096709;28;19908;-88
2022/02/07 08:58:36;;;;;;;;;;;;;;;;;;5096321;28;19915;-89
2022/02/07 09:04:28;;;;;;;;;;;;;;;;;;5078621;28;19916;-88
2022/02/07 09:06:56;;;;;;;;;;;;;;;;;;5095860;28;19914;-88
2022/02/07 09:09:21;;;;;;;;;;;;;;;;;;5078034;28;19973;-89
2022/02/07 09:11:46;;;;;;;;;;;;;;;;;;5077608;28;19908;-88
2022/02/07 09:14:19;;;;;;;;;;;;;;;;;;5095566;28;19919;-88
2022/02/07 09:16:44;;;;;;;;;;;;;;;;;;5077480;28;19912;-89
2022/02/07 09:19:09;;;;;;;;;;;;;;;;;;5077208;28;20011;-88
2022/02/07 09:21:34;;;;;;;;;;;;;;;;;;5076957;28;19924;-88
2022/02/07 09:23:59;;;;;;;;;;;;;;;;;;5077256;28;20290;-88
2022/02/07 09:26:24;;;;;;;;;;;;;;;;;;5077148;28;20344;-89
2022/02/07 09:28:49;;;;;;;;;;;;;;;;;;5076976;28;20611;-88
2022/02/07 09:31:15;;;;;;;;;;;;;;;;;;5076823;28;19947;-87
2022/02/07 09:33:41;;;;;;;;;;;;;;;;;;5077102;28;19951;-90
2022/02/07 09:36:06;;;;;;;;;;;;;;;;;;5076825;28;19912;-86
2022/02/07 09:38:32;;;;;;;;;;;;;;;;;;5075877;28;19919;-86
2022/02/07 09:40:58;;;;;;;;;;;;;;;;;;5076576;28;19919;-86
2022/02/07 09:43:30;;;;;;;;;;;;;;;;;;5075206;28;20425;-86
2022/02/07 09:46:04;;;;;;;;;;;;;;;;;;5076667;28;19946;-86
2022/02/07 09:48:29;;;;;;;;;;;;;;;;;;5076655;28;19959;-86
2022/02/07 09:50:54;;;;;;;;;;;;;;;;;;5076421;28;19912;-86
2022/02/07 09:53:19;;;;;;;;;;;;;;;;;;5076118;28;19959;-86
2022/02/07 09:55:45;;;;;;;;;;;;;;;;;;5076096;28;20319;-86
2022/02/07 09:58:10;;;;;;;;;;;;;;;;;;5076280;28;19954;-86
2022/02/07 10:00:36;;;;;;;;;;;;;;;;;;5075735;28;19924;-86
2022/02/07 10:03:30;;;;;;;;;;;;;;;;;;5076089;28;20268;-87
2022/02/07 10:08:31;;;;;;;;;;;;;;;;;;5094270;28;19920;-85
2022/02/07 10:11:07;;;;;;;;;;;;;;;;;;5069953;28;19912;-86
2022/02/07 10:19:08;;;;;;;;;;;;;;;;;;5094517;28;19919;-86
2022/02/07 10:43:08;;;;;;;;;;;;;;;;;;5093715;28;19917;-86
2022/02/07 10:45:33;;;;;;;;;;;;;;;;;;5093583;28;19916;-86
2022/02/07 10:48:01;;;;;;;;;;;;;;;;;;5075453;28;20360;-87
2022/02/07 10:50:26;;;;;;;;;;;;;;;;;;5075052;28;19915;-86
2022/02/07 10:52:51;;;;;;;;;;;;;;;;;;5075254;28;19919;-85
2022/02/07 10:55:16;;;;;;;;;;;;;;;;;;5074903;28;19912;-85
2022/02/07 10:57:44;;;;;;;;;;;;;;;;;;5075035;28;19912;-85
2022/02/07 11:00:10;;;;;;;;;;;;;;;;;;5075030;28;19920;-85
2022/02/07 11:02:54;;;;;;;;;;;;;;;;;;5074961;28;19920;-85
2022/02/07 11:05:20;;;;;;;;;;;;;;;;;;5064681;28;19942;-85
2022/02/07 11:07:45;;;;;;;;;;;;;;;;;;5075447;28;20374;-85
2022/02/07 11:12:57;;;;;;;;;;;;;;;;;;5092870;28;20028;-85
2022/02/07 11:15:37;;;;;;;;;;;;;;;;;;5093118;28;19912;-86
2022/02/07 11:26:15;;;;;;;;;;;;;;;;;;5093288;28;20209;-85
2022/02/07 11:28:40;;;;;;;;;;;;;;;;;;5074925;28;20367;-85
2022/02/07 11:31:06;;;;;;;;;;;;;;;;;;5074703;28;19916;-85
2022/02/07 11:33:31;;;;;;;;;;;;;;;;;;5092906;28;19912;-85
2022/02/07 11:35:56;;;;;;;;;;;;;;;;;;5074785;28;19916;-85
2022/02/07 11:38:21;;;;;;;;;;;;;;;;;;5073876;28;19973;-86
2022/02/07 11:40:46;;;;;;;;;;;;;;;;;;5069248;28;19912;-85
2022/02/07 11:43:11;;;;;;;;;;;;;;;;;;5092634;28;19916;-85
2022/02/07 11:45:37;;;;;;;;;;;;;;;;;;5074722;28;19912;-85
2022/02/07 11:48:02;;;;;;;;;;;;;;;;;;5074656;28;19966;-85
2022/02/07 11:50:27;;;;;;;;;;;;;;;;;;5074240;28;20383;-85
2022/02/07 11:52:55;;;;;;;;;;;;;;;;;;5092848;28;20014;-85
2022/02/07 11:55:20;;;;;;;;;;;;;;;;;;5074836;28;19912;-85
2022/02/07 11:57:51;;;;;;;;;;;;;;;;;;5074483;28;20655;-85
2022/02/07 12:00:16;;;;;;;;;;;;;;;;;;5073233;28;20409;-85
2022/02/07 12:02:47;;;;;;;;;;;;;;;;;;5074321;28;19920;-85
2022/02/07 12:05:12;;;;;;;;;;;;;;;;;;5074430;28;19934;-85
2022/02/07 12:07:39;;;;;;;;;;;;;;;;;;5077268;28;20559;-85
2022/02/07 12:12:29;;;;;;;;;;;;;;;;;;5096268;28;19912;-85
2022/02/07 12:14:54;;;;;;;;;;;;;;;;;;5096621;28;19912;-85
2022/02/07 12:17:19;;;;;;;;;;;;;;;;;;5077903;28;19908;-86
2022/02/07 12:19:44;;;;;;;;;;;;;;;;;;5078539;28;20352;-85
2022/02/07 12:22:09;;;;;;;;;;;;;;;;;;5096200;28;19916;-86
2022/02/07 12:24:35;;;;;;;;;;;;;;;;;;5077854;28;20074;-86
2022/02/07 12:27:01;;;;;;;;;;;;;;;;;;5077943;28;20378;-85
2022/02/07 12:29:48;;;;;;;;;;;;;;;;;;5078130;28;19948;-85
2022/02/07 12:32:11;;;;;;;;;;;;;;;;;;5094814;28;19923;-86
2022/02/07 12:34:36;;;;;;;;;;;;;;;;;;5077520;28;19916;-86
2022/02/07 12:37:02;;;;;;;;;;;;;;;;;;5096056;28;19912;-86
2022/02/07 12:39:27;;;;;;;;;;;;;;;;;;5077730;28;20492;-86
2022/02/07 12:41:52;;;;;;;;;;;;;;;;;;5075957;28;19962;-86
2022/02/07 12:44:22;;;;;;;;;;;;;;;;;;5077392;28;20359;-85
2022/02/07 12:46:48;;;;;;;;;;;;;;;;;;5077496;28;19961;-86
2022/02/07 12:49:14;;;;;;;;;;;;;;;;;;5076491;28;20380;-87
2022/02/07 12:51:42;;;;;;;;;;;;;;;;;;5077683;28;20359;-87
2022/02/07 12:54:07;;;;;;;;;;;;;;;;;;5077537;28;19926;-86
2022/02/07 12:56:34;;;;;;;;;;;;;;;;;;5095808;28;19912;-86
2022/02/07 12:59:01;;;;;;;;;;;;;;;;;;5077197;28;19916;-86
2022/02/07 13:01:26;;;;;;;;;;;;;;;;;;5076811;28;19919;-85
2022/02/07 13:03:51;;;;;;;;;;;;;;;;;;5077292;28;20364;-84
2022/02/07 13:06:16;;;;;;;;;;;;;;;;;;5074809;28;20007;-84
2022/02/07 13:08:44;;;;;;;;;;;;;;;;;;5077409;28;19916;-84
2022/02/07 13:11:14;;;;;;;;;;;;;;;;;;5077076;28;19989;-83
2022/02/07 13:13:48;;;;;;;;;;;;;;;;;;5095235;28;19912;-84
2022/02/07 13:16:13;;;;;;;;;;;;;;;;;;5069087;28;19912;-84
2022/02/07 13:18:38;;;;;;;;;;;;;;;;;;5076943;28;19935;-85
2022/02/07 13:21:06;;;;;;;;;;;;;;;;;;5076670;28;20387;-84
2022/02/07 13:23:31;;;;;;;;;;;;;;;;;;5076934;28;19916;-85
2022/02/07 13:25:58;;;;;;;;;;;;;;;;;;5076925;28;19916;-84
2022/02/07 13:28:23;;;;;;;;;;;;;;;;;;5076666;28;19920;-84
2022/02/07 13:30:48;;;;;;;;;;;;;;;;;;5076343;28;19913;-85
2022/02/07 13:33:13;;;;;;;;;;;;;;;;;;5076717;28;19912;-85
2022/02/07 13:35:40;;;;;;;;;;;;;;;;;;5082106;28;19916;-85
2022/02/07 13:38:05;;;;;;;;;;;;;;;;;;5080486;28;19912;-85
2022/02/07 13:40:30;;;;;;;;;;;;;;;;;;5094560;28;19920;-85
2022/02/07 13:42:55;;;;;;;;;;;;;;;;;;5083581;28;19920;-85
2022/02/07 13:45:21;;;;;;;;;;;;;;;;;;5076444;28;20691;-85
2022/02/07 13:47:46;;;;;;;;;;;;;;;;;;5093389;28;20396;-85
2022/02/07 13:50:11;;;;;;;;;;;;;;;;;;5075480;28;19912;-86
2022/02/07 13:52:36;;;;;;;;;;;;;;;;;;5076080;28;19916;-87
2022/02/07 13:55:01;;;;;;;;;;;;;;;;;;5081587;28;19909;-87
2022/02/07 13:57:26;;;;;;;;;;;;;;;;;;5096096;28;19920;-86
2022/02/07 13:59:51;;;;;;;;;;;;;;;;;;5092878;28;19908;-86
2022/02/07 14:02:16;;;;;;;;;;;;;;;;;;5075876;28;20041;-86
2022/02/07 14:04:41;;;;;;;;;;;;;;;;;;5071579;28;19915;-86
2022/02/07 14:07:08;;;;;;;;;;;;;;;;;;5076544;28;20348;-86
2022/02/07 14:09:33;;;;;;;;;;;;;;;;;;5075943;28;19926;-86
2022/02/07 14:11:59;;;;;;;;;;;;;;;;;;5075350;28;20034;-86
2022/02/07 14:14:24;;;;;;;;;;;;;;;;;;5075879;28;19908;-86
2022/02/07 14:16:49;;;;;;;;;;;;;;;;;;5076048;28;19919;-86
2022/02/07 14:19:16;;;;;;;;;;;;;;;;;;5075820;28;19923;-86
2022/02/07 14:21:42;;;;;;;;;;;;;;;;;;5078850;28;19912;-86
2022/02/07 14:24:08;;;;;;;;;;;;;;;;;;5076860;28;20030;-86
2022/02/07 14:26:37;;;;;;;;;;;;;;;;;;5090276;28;20013;-86
2022/02/07 14:29:02;;;;;;;;;;;;;;;;;;5080623;28;20015;-86
2022/02/07 14:31:29;;;;;;;;;;;;;;;;;;5075852;28;20065;-86
2022/02/07 14:33:54;;;;;;;;;;;;;;;;;;5095778;28;20271;-86
2022/02/07 14:36:21;;;;;;;;;;;;;;;;;;5075565;28;20359;-86
2022/02/07 14:38:46;;;;;;;;;;;;;;;;;;5075754;28;19912;-86
2022/02/07 14:41:11;;;;;;;;;;;;;;;;;;5094043;28;19912;-86
2022/02/07 14:43:38;;;;;;;;;;;;;;;;;;5093776;28;20019;-86
2022/02/07 14:48:28;;;;;;;;;;;;;;;;;;5094084;28;19920;-86
2022/02/07 14:50:53;;;;;;;;;;;;;;;;;;5093526;28;19912;-86
2022/02/07 14:53:18;;;;;;;;;;;;;;;;;;5075790;28;20372;-86
2022/02/07 14:55:43;;;;;;;;;;;;;;;;;;5075206;28;19961;-86
2022/02/07 14:58:08;;;;;;;;;;;;;;;;;;5093548;28;19980;-86
2022/02/07 15:00:33;;;;;;;;;;;;;;;;;;5093530;28;20007;-86
2022/02/07 15:02:59;;;;;;;;;;;;;;;;;;5075439;28;19912;-86
2022/02/07 15:05:24;;;;;;;;;;;;;;;;;;5075762;28;20283;-86
2022/02/07 15:07:49;;;;;;;;;;;;;;;;;;5075338;28;19912;-86
2022/02/07 15:10:14;;;;;;;;;;;;;;;;;;5075665;28;20291;-87
2022/02/07 15:12:39;;;;;;;;;;;;;;;;;;5075290;28;19919;-85
2022/02/07 15:15:04;;;;;;;;;;;;;;;;;;5075237;28;19923;-86
2022/02/07 15:17:31;;;;;;;;;;;;;;;;;;5073563;28;19912;-85
2022/02/07 15:19:56;;;;;;;;;;;;;;;;;;5095746;28;20292;-85
2022/02/07 15:22:21;;;;;;;;;;;;;;;;;;5074669;28;19957;-85
2022/02/07 15:24:46;;;;;;;;;;;;;;;;;;5075103;28;20294;-85
2022/02/07 15:27:11;;;;;;;;;;;;;;;;;;5074781;28;19912;-87
2022/02/07 15:29:39;;;;;;;;;;;;;;;;;;5075019;28;19913;-86
2022/02/07 15:34:45;;;;;;;;;;;;;;;;;;5093078;28;20393;-86
2022/02/07 15:37:10;;;;;;;;;;;;;;;;;;5074832;28;19912;-86
2022/02/07 15:39:35;;;;;;;;;;;;;;;;;;5075031;28;19916;-86
2022/02/07 15:42:00;;;;;;;;;;;;;;;;;;5071061;28;19923;-87
2022/02/07 15:44:25;;;;;;;;;;;;;;;;;;5093351;28;19926;-86
2022/02/07 15:46:51;;;;;;;;;;;;;;;;;;5078925;28;19919;-86
2022/02/07 15:49:16;;;;;;;;;;;;;;;;;;5098743;28;20402;-85
2022/02/07 15:51:41;;;;;;;;;;;;;;;;;;5079025;28;19912;-86
2022/02/07 15:54:07;;;;;;;;;;;;;;;;;;5096060;28;19916;-86
2022/02/07 15:56:32;;;;;;;;;;;;;;;;;;5096836;28;19919;-86
2022/02/07 15:58:57;;;;;;;;;;;;;;;;;;5078475;28;19912;-85
2022/02/07 16:01:22;;;;;;;;;;;;;;;;;;5096781;28;19912;-86
2022/02/07 16:03:47;;;;;;;;;;;;;;;;;;5074013;28;19916;-86
2022/02/07 16:06:16;;;;;;;;;;;;;;;;;;5079745;28;20405;-86
2022/02/07 16:08:41;;;;;;;;;;;;;;;;;;5073765;28;19913;-86
2022/02/07 16:11:08;;;;;;;;;;;;;;;;;;5070463;28;19950;-86
2022/02/07 16:13:37;;;;;;;;;;;;;;;;;;5094462;28;19980;-86
2022/02/07 16:16:03;;;;;;;;;;;;;;;;;;5071581;28;20364;-86
2022/02/07 16:18:28;;;;;;;;;;;;;;;;;;5078936;28;19927;-86
2022/02/07 16:20:54;;;;;;;;;;;;;;;;;;5079015;28;19912;-86
2022/02/07 16:23:22;;;;;;;;;;;;;;;;;;5078636;28;20416;-86
2022/02/07 16:25:48;;;;;;;;;;;;;;;;;;5078414;28;19919;-86
2022/02/07 16:28:13;;;;;;;;;;;;;;;;;;5080295;28;20275;-86
2022/02/07 16:30:38;;;;;;;;;;;;;;;;;;5094386;28;19949;-85
2022/02/07 16:33:03;;;;;;;;;;;;;;;;;;5077216;28;20279;-86
2022/02/07 16:35:28;;;;;;;;;;;;;;;;;;5069209;28;19923;-86
2022/02/07 16:37:53;;;;;;;;;;;;;;;;;;5093777;28;19985;-85
2022/02/07 16:40:19;;;;;;;;;;;;;;;;;;5076811;28;19912;-86
2022/02/07 16:42:44;;;;;;;;;;;;;;;;;;5094637;28;19912;-86
2022/02/07 16:45:20;;;;;;;;;;;;;;;;;;5097816;28;19978;-86
2022/02/07 16:47:45;;;;;;;;;;;;;;;;;;5076199;28;19968;-86
2022/02/07 16:50:10;;;;;;;;;;;;;;;;;;5063761;28;19912;-87
2022/02/07 16:52:35;;;;;;;;;;;;;;;;;;5075594;28;20325;-87
2022/02/07 16:55:00;;;;;;;;;;;;;;;;;;5093815;28;19926;-87
2022/02/07 16:57:25;;;;;;;;;;;;;;;;;;5094829;28;19957;-87
2022/02/07 16:59:51;;;;;;;;;;;;;;;;;;5071429;28;19918;-87
2022/02/07 17:02:22;;;;;;;;;;;;;;;;;;5074842;28;19919;-86
2022/02/07 17:04:47;;;;;;;;;;;;;;;;;;5077931;28;19927;-86
2022/02/07 17:07:12;;;;;;;;;;;;;;;;;;5075542;28;19912;-86
2022/02/07 17:09:40;;;;;;;;;;;;;;;;;;5091365;28;19994;-86
2022/02/07 17:12:05;;;;;;;;;;;;;;;;;;5074162;28;19920;-86
2022/02/07 17:14:30;;;;;;;;;;;;;;;;;;5079364;28;19995;-87
2022/02/07 17:16:55;;;;;;;;;;;;;;;;;;5075092;28;19951;-86
2022/02/07 17:19:20;;;;;;;;;;;;;;;;;;5075033;28;20393;-87
2022/02/07 17:21:45;;;;;;;;;;;;;;;;;;5093501;28;20487;-86
2022/02/07 17:24:10;;;;;;;;;;;;;;;;;;5064317;28;19938;-87
2022/02/07 17:26:36;;;;;;;;;;;;;;;;;;5072733;28;19924;-85
2022/02/07 17:29:01;;;;;;;;;;;;;;;;;;5075152;28;19908;-87
2022/02/07 17:31:26;;;;;;;;;;;;;;;;;;5071351;28;20391;-87
2022/02/07 17:33:51;;;;;;;;;;;;;;;;;;5011888;28;1943661;-87
2022/02/07 17:36:16;;;;;;;;;;;;;;;;;;5071695;28;20507;-87
2022/02/07 17:38:41;;;;;;;;;;;;;;;;;;5068218;28;19965;-87
2022/02/07 17:41:08;;;;;;;;;;;;;;;;;;5074853;28;20371;-86
2022/02/07 17:43:36;;;;;;;;;;;;;;;;;;5080165;28;19916;-86
2022/02/07 17:46:01;;;;;;;;;;;;;;;;;;5076276;28;19916;-87
2022/02/07 17:48:27;;;;;;;;;;;;;;;;;;5076818;28;19924;-86
2022/02/07 17:50:52;;;;;;;;;;;;;;;;;;5066616;28;19912;-87
2022/02/07 17:53:17;;;;;;;;;;;;;;;;;;5066688;28;20325;-87
2022/02/07 17:55:44;;;;;;;;;;;;;;;;;;5093671;28;19912;-86
2022/02/07 17:58:12;;;;;;;;;;;;;;;;;;5071979;28;20416;-87
2022/02/07 18:00:37;;;;;;;;;;;;;;;;;;5077075;28;19916;-87
2022/02/07 18:03:02;;;;;;;;;;;;;;;;;;5079898;28;20022;-87
2022/02/07 18:05:32;;;;;;;;;;;;;;;;;;5076687;28;19919;-87
2022/02/07 18:07:57;;;;;;;;;;;;;;;;;;5076690;28;19912;-87
2022/02/07 18:10:25;;;;;;;;;;;;;;;;;;5076178;28;19957;-86
2022/02/07 18:12:50;;;;;;;;;;;;;;;;;;5072374;28;19934;-86
2022/02/07 18:15:15;;;;;;;;;;;;;;;;;;5075953;28;20283;-86
2022/02/07 18:17:40;;;;;;;;;;;;;;;;;;5079891;28;19920;-87
2022/02/07 18:20:19;;;;;;;;;;;;;;;;;;5075507;28;19916;-86
2022/02/07 18:22:48;;;;;;;;;;;;;;;;;;5098689;28;20009;-86
2022/02/07 18:25:16;;;;;;;;;;;;;;;;;;5097280;28;20327;-86
2022/02/07 18:27:41;;;;;;;;;;;;;;;;;;5099111;28;20267;-86
2022/02/07 18:30:10;;;;;;;;;;;;;;;;;;5075697;28;20363;-86
2022/02/07 18:32:35;;;;;;;;;;;;;;;;;;5076490;28;19916;-86
2022/02/07 18:35:00;;;;;;;;;;;;;;;;;;5075679;28;19923;-86
2022/02/07 18:37:25;;;;;;;;;;;;;;;;;;5078899;28;19916;-87
2022/02/07 18:39:50;;;;;;;;;;;;;;;;;;5101709;28;19920;-86
2022/02/07 18:42:15;;;;;;;;;;;;;;;;;;5075535;28;19966;-86
2022/02/07 18:44:42;;;;;;;;;;;;;;;;;;5073514;28;19916;-86
2022/02/07 18:47:09;;;;;;;;;;;;;;;;;;5075696;28;19965;-86
2022/02/07 18:49:35;;;;;;;;;;;;;;;;;;5077197;28;19912;-85
2022/02/07 18:52:00;;;;;;;;;;;;;;;;;;5076280;28;20011;-86
2022/02/07 18:54:25;;;;;;;;;;;;;;;;;;5083069;28;19995;-87
2022/02/07 18:56:51;;;;;;;;;;;;;;;;;;5075681;28;20278;-86
2022/02/07 18:59:19;;;;;;;;;;;;;;;;;;5100203;28;20287;-86
2022/02/07 19:02:03;;;;;;;;;;;;;;;;;;5074893;28;19997;-86